createdAt,value
2019-03-03T00:00:17.893Z,8.58
2019-03-03T00:02:44.100Z,9.10
2019-03-03T00:05:10.273Z,8.70
2019-03-03T00:07:36.516Z,7.50
2019-03-03T00:10:02.726Z,8.40
2019-03-03T00:12:28.899Z,8.25
2019-03-03T00:14:55.080Z,9.28
2019-03-03T00:17:21.364Z,8.73
2019-03-03T00:19:47.532Z,8.90
2019-03-03T00:22:13.704Z,8.40
2019-03-03T00:24:39.901Z,9.20
2019-03-03T00:27:06.144Z,8.28
2019-03-03T00:29:32.316Z,8.18
2019-03-03T00:31:58.512Z,8.53
2019-03-03T00:34:24.691Z,8.28
2019-03-03T00:36:50.965Z,8.50
2019-03-03T00:39:17.158Z,9.25
2019-03-03T00:41:43.335Z,9.10
2019-03-03T00:44:09.518Z,7.42
2019-03-03T00:46:35.809Z,8.93
2019-03-03T00:49:01.978Z,8.90
2019-03-03T00:51:28.148Z,9.28
2019-03-03T00:53:54.495Z,9.98
2019-03-03T00:56:20.696Z,8.95
2019-03-03T00:58:46.877Z,8.45
2019-03-03T01:01:13.080Z,10.05
2019-03-03T01:03:39.257Z,8.48
2019-03-03T01:06:05.522Z,10.05
2019-03-03T01:08:31.718Z,9.08
2019-03-03T01:10:57.886Z,10.32
2019-03-03T01:13:24.060Z,10.48
2019-03-03T01:15:50.362Z,10.00
2019-03-03T01:18:16.528Z,8.50
2019-03-03T01:20:42.698Z,9.60
2019-03-03T01:23:08.877Z,9.88
2019-03-03T01:25:35.137Z,8.68
2019-03-03T01:28:01.500Z,9.40
2019-03-03T01:30:27.668Z,9.13
2019-03-03T01:32:53.847Z,10.23
2019-03-03T01:35:20.041Z,9.45
2019-03-03T01:37:46.209Z,9.28
2019-03-03T01:40:12.392Z,9.50
2019-03-03T01:42:38.576Z,9.88
2019-03-03T01:45:04.745Z,9.10
2019-03-03T01:47:30.922Z,8.15
2019-03-03T01:49:57.105Z,9.53
2019-03-03T01:52:23.273Z,8.38
2019-03-03T01:54:49.459Z,9.30
2019-03-03T01:57:15.667Z,9.55
2019-03-03T01:59:41.843Z,8.30
2019-03-03T02:02:08.008Z,9.13
2019-03-03T02:04:34.220Z,9.75
2019-03-03T02:07:00.420Z,9.58
2019-03-03T02:09:26.589Z,9.90
2019-03-03T02:11:52.803Z,7.87
2019-03-03T02:14:18.966Z,9.25
2019-03-03T02:16:45.237Z,8.65
2019-03-03T02:19:11.432Z,9.25
2019-03-03T02:21:37.608Z,9.83
2019-03-03T02:24:03.788Z,9.40
2019-03-03T02:26:30.086Z,8.28
2019-03-03T02:28:56.268Z,8.10
2019-03-03T02:31:22.440Z,9.20
2019-03-03T02:33:48.634Z,9.55
2019-03-03T02:36:14.868Z,8.60
2019-03-03T02:38:41.075Z,8.90
2019-03-03T02:41:07.270Z,7.90
2019-03-03T02:43:33.449Z,8.40
2019-03-03T02:45:59.695Z,9.33
2019-03-03T02:48:25.898Z,8.38
2019-03-03T02:50:52.057Z,10.85
2019-03-03T02:53:18.245Z,8.20
2019-03-03T02:55:44.528Z,8.05
2019-03-03T02:58:10.698Z,8.00
2019-03-03T03:00:36.863Z,9.53
2019-03-03T03:03:03.060Z,8.73
2019-03-03T03:05:29.315Z,8.30
2019-03-03T03:07:55.481Z,8.20
2019-03-03T03:10:21.691Z,8.63
2019-03-03T03:12:47.871Z,8.35
2019-03-03T03:15:14.135Z,8.25
2019-03-03T03:17:40.337Z,9.15
2019-03-03T03:20:06.488Z,8.75
2019-03-03T03:22:32.666Z,9.45
2019-03-03T03:24:58.849Z,8.15
2019-03-03T03:27:25.021Z,9.20
2019-03-03T03:29:51.188Z,7.47
2019-03-03T03:32:17.388Z,9.35
2019-03-03T03:34:43.552Z,8.20
2019-03-03T03:37:09.727Z,8.98
2019-03-03T03:39:35.922Z,7.92
2019-03-03T03:42:02.093Z,9.08
2019-03-03T03:44:28.274Z,8.33
2019-03-03T03:46:54.526Z,8.03
2019-03-03T03:49:20.696Z,8.58
2019-03-03T03:51:46.878Z,7.70
2019-03-03T03:54:13.061Z,9.18
2019-03-03T03:56:39.248Z,8.45
2019-03-03T03:59:05.527Z,8.33
2019-03-03T04:01:31.687Z,8.60
2019-03-03T04:03:57.867Z,8.90
2019-03-03T04:06:24.155Z,7.65
2019-03-03T04:08:50.324Z,8.10
2019-03-03T04:11:16.511Z,7.87
2019-03-03T04:13:42.696Z,8.05
2019-03-03T04:16:08.937Z,8.53
2019-03-03T04:18:35.113Z,8.65
2019-03-03T04:21:01.314Z,8.68
2019-03-03T04:23:27.492Z,8.13
2019-03-03T04:25:53.798Z,8.10
2019-03-03T04:28:19.995Z,8.28
2019-03-03T04:30:46.154Z,8.65
2019-03-03T04:33:12.324Z,7.62
2019-03-03T04:35:38.601Z,8.23
2019-03-03T04:38:04.776Z,7.87
2019-03-03T04:40:30.952Z,8.58
2019-03-03T04:42:57.147Z,7.12
2019-03-03T04:45:23.389Z,7.12
2019-03-03T04:47:49.558Z,7.75
2019-03-03T04:50:15.739Z,6.92
2019-03-03T04:52:41.945Z,7.58
2019-03-03T04:55:08.194Z,8.10
2019-03-03T04:57:34.401Z,7.35
2019-03-03T05:00:00.564Z,7.05
2019-03-03T05:02:26.729Z,6.22
2019-03-03T05:04:52.930Z,7.17
2019-03-03T05:07:19.107Z,8.35
2019-03-03T05:09:45.272Z,7.25
2019-03-03T05:12:20.168Z,7.03
2019-03-03T05:14:46.336Z,8.35
2019-03-03T05:17:12.548Z,6.70
2019-03-03T05:19:38.749Z,6.53
2019-03-03T05:22:04.927Z,7.10
2019-03-03T05:24:34.374Z,7.67
2019-03-03T05:26:59.028Z,7.10
2019-03-03T05:29:25.205Z,7.85
2019-03-03T05:31:51.377Z,6.42
2019-03-03T05:34:17.639Z,7.65
2019-03-03T05:36:43.824Z,6.72
2019-03-03T05:39:09.993Z,7.05
2019-03-03T05:41:36.187Z,7.42
2019-03-03T05:44:02.367Z,6.22
2019-03-03T05:46:28.639Z,7.35
2019-03-03T05:48:54.862Z,6.80
2019-03-03T05:51:21.017Z,6.10
2019-03-03T05:53:47.202Z,6.17
2019-03-03T05:56:13.482Z,5.08
2019-03-03T05:58:39.653Z,6.83
2019-03-03T06:01:05.820Z,7.47
2019-03-03T06:03:32.019Z,6.47
2019-03-03T06:05:58.268Z,6.87
2019-03-03T06:08:24.450Z,6.40
2019-03-03T06:10:50.652Z,6.35
2019-03-03T06:13:16.819Z,6.58
2019-03-03T06:15:43.079Z,6.20
2019-03-03T06:18:09.276Z,5.92
2019-03-03T06:20:35.444Z,5.90
2019-03-03T06:23:01.618Z,6.33
2019-03-03T06:25:27.838Z,5.67
2019-03-03T06:27:54.010Z,6.00
2019-03-03T06:30:20.191Z,6.53
2019-03-03T06:32:46.388Z,4.85
2019-03-03T06:35:12.611Z,6.12
2019-03-03T06:37:38.787Z,5.78
2019-03-03T06:40:04.980Z,5.42
2019-03-03T06:42:31.147Z,5.90
2019-03-03T06:44:57.320Z,5.37
2019-03-03T06:47:23.524Z,6.97
2019-03-03T06:49:49.699Z,6.05
2019-03-03T06:52:15.876Z,5.45
2019-03-03T06:54:42.169Z,5.87
2019-03-03T06:57:08.347Z,5.50
2019-03-03T06:59:34.514Z,5.60
2019-03-03T07:02:00.693Z,5.90
2019-03-03T07:04:26.860Z,5.53
2019-03-03T07:06:53.059Z,5.45
2019-03-03T07:09:19.240Z,5.53
2019-03-03T07:11:45.418Z,6.37
2019-03-03T07:14:11.619Z,6.03
2019-03-03T07:16:37.796Z,5.10
2019-03-03T07:19:03.972Z,6.12
2019-03-03T07:21:30.173Z,6.03
2019-03-03T07:23:56.340Z,6.08
2019-03-03T07:26:22.608Z,5.75
2019-03-03T07:28:48.867Z,4.60
2019-03-03T07:31:15.048Z,5.53
2019-03-03T07:33:41.221Z,5.58
2019-03-03T07:36:07.455Z,6.50
2019-03-03T07:38:33.625Z,5.10
2019-03-03T07:40:59.832Z,6.53
2019-03-03T07:43:26.023Z,5.42
2019-03-03T07:45:52.245Z,5.37
2019-03-03T07:48:18.409Z,5.60
2019-03-03T07:50:45.009Z,5.50
2019-03-03T07:53:11.227Z,4.78
2019-03-03T07:55:37.459Z,5.10
2019-03-03T07:58:03.653Z,4.92
2019-03-03T08:00:29.827Z,5.12
2019-03-03T08:02:55.995Z,5.10
2019-03-03T08:05:22.315Z,4.75
2019-03-03T08:07:48.870Z,5.30
2019-03-03T08:10:15.222Z,6.00
2019-03-03T08:12:41.420Z,4.47
2019-03-03T08:15:07.603Z,5.45
2019-03-03T08:17:33.801Z,5.78
2019-03-03T08:20:00.318Z,4.35
2019-03-03T08:22:26.523Z,5.25
2019-03-03T08:24:52.727Z,5.60
2019-03-03T08:27:18.919Z,5.47
2019-03-03T08:29:45.251Z,6.15
2019-03-03T08:32:11.406Z,5.37
2019-03-03T08:34:37.677Z,6.35
2019-03-03T08:37:03.856Z,6.50
2019-03-03T08:39:30.104Z,6.80
2019-03-03T08:41:56.313Z,6.08
2019-03-03T08:44:22.492Z,6.60
2019-03-03T08:46:48.656Z,7.08
2019-03-03T08:49:14.852Z,6.75
2019-03-03T08:51:41.015Z,7.10
2019-03-03T08:54:07.354Z,5.62
2019-03-03T08:56:33.556Z,6.75
2019-03-03T08:58:59.798Z,6.40
2019-03-03T09:01:25.983Z,6.37
2019-03-03T09:03:52.159Z,6.47
2019-03-03T09:06:18.421Z,6.00
2019-03-03T09:08:44.638Z,6.22
2019-03-03T09:11:10.807Z,6.40
2019-03-03T09:13:36.982Z,5.87
2019-03-03T09:16:03.268Z,5.85
2019-03-03T09:18:29.444Z,5.78
2019-03-03T09:20:55.616Z,5.37
2019-03-03T09:23:21.795Z,4.58
2019-03-03T09:25:48.049Z,5.50
2019-03-03T09:28:14.218Z,6.30
2019-03-03T09:30:40.417Z,5.67
2019-03-03T09:33:06.584Z,5.35
2019-03-03T09:35:32.765Z,4.90
2019-03-03T09:37:58.958Z,4.97
2019-03-03T09:40:25.137Z,4.15
2019-03-03T09:42:51.301Z,4.50
2019-03-03T09:45:17.527Z,4.53
2019-03-03T09:47:43.692Z,4.65
2019-03-03T09:50:09.869Z,5.20
2019-03-03T09:52:36.071Z,4.40
2019-03-03T09:55:02.295Z,4.90
2019-03-03T09:57:28.461Z,4.10
2019-03-03T09:59:54.662Z,4.62
2019-03-03T10:02:20.837Z,5.25
2019-03-03T10:04:47.120Z,6.72
2019-03-03T10:07:13.721Z,6.67
2019-03-03T10:09:39.963Z,7.08
2019-03-03T10:12:06.171Z,6.90
2019-03-03T10:14:32.441Z,7.08
2019-03-03T10:17:00.445Z,7.47
2019-03-03T10:19:28.822Z,7.28
2019-03-03T10:21:55.077Z,8.20
2019-03-03T10:24:23.618Z,8.10
2019-03-03T10:26:52.160Z,7.37
2019-03-03T10:29:18.971Z,7.05
2019-03-03T10:31:45.324Z,7.47
2019-03-03T10:34:12.245Z,6.92
2019-03-03T10:36:38.898Z,7.05
2019-03-03T10:39:05.226Z,6.85
2019-03-03T10:41:31.670Z,7.20
2019-03-03T10:43:59.596Z,6.45
2019-03-03T10:46:25.813Z,5.75
2019-03-03T10:48:53.237Z,6.42
2019-03-03T10:51:20.614Z,6.20
2019-03-03T10:53:47.025Z,5.95
2019-03-03T10:56:14.346Z,6.55
2019-03-03T10:58:40.699Z,6.72
2019-03-03T11:01:07.355Z,6.37
2019-03-03T11:03:34.232Z,6.25
2019-03-03T11:06:01.656Z,5.53
2019-03-03T11:08:29.186Z,6.45
2019-03-03T11:10:57.811Z,5.95
2019-03-03T11:13:24.345Z,5.58
2019-03-03T11:15:50.684Z,5.53
2019-03-03T11:18:17.166Z,6.20
2019-03-03T11:20:43.403Z,5.30
2019-03-03T11:23:09.573Z,5.25
2019-03-03T11:25:38.197Z,5.60
2019-03-03T11:28:04.466Z,5.33
2019-03-03T11:30:30.739Z,5.50
2019-03-03T11:32:57.114Z,5.75
2019-03-03T11:35:25.535Z,6.12
2019-03-03T11:37:51.952Z,6.12
2019-03-03T11:40:19.645Z,5.67
2019-03-03T11:42:47.365Z,5.17
2019-03-03T11:45:16.790Z,5.05
2019-03-03T11:47:43.458Z,5.12
2019-03-03T11:50:16.240Z,5.10
2019-03-03T11:52:43.599Z,4.65
2019-03-03T11:55:10.353Z,5.42
2019-03-03T11:57:36.897Z,5.35
2019-03-03T12:00:03.321Z,5.10
2019-03-03T12:02:33.804Z,4.33
2019-03-03T12:05:00.509Z,4.35
2019-03-03T12:07:26.725Z,4.72
2019-03-03T12:09:53.200Z,4.62
2019-03-03T12:12:19.490Z,4.28
2019-03-03T12:14:45.822Z,4.20
2019-03-03T12:17:12.079Z,4.10
2019-03-03T12:19:38.440Z,4.20
2019-03-03T12:22:04.757Z,3.90
2019-03-03T12:24:31.060Z,3.83
2019-03-03T12:26:57.376Z,3.55
2019-03-03T12:29:23.765Z,4.35
2019-03-03T12:31:50.845Z,4.10
2019-03-03T12:34:17.291Z,4.17
2019-03-03T12:36:43.575Z,3.58
2019-03-03T12:39:09.887Z,4.37
2019-03-03T12:41:36.238Z,4.00
2019-03-03T12:44:02.498Z,3.95
2019-03-03T12:46:28.690Z,4.03
2019-03-03T12:48:54.855Z,4.03
2019-03-03T12:51:21.243Z,4.00
2019-03-03T12:53:47.575Z,4.05
2019-03-03T12:56:13.741Z,4.10
2019-03-03T12:58:40.031Z,5.80
2019-03-03T13:01:06.410Z,3.95
2019-03-03T13:03:33.215Z,3.72
2019-03-03T13:05:59.388Z,4.03
2019-03-03T13:08:25.572Z,3.87
2019-03-03T13:10:51.750Z,4.00
2019-03-03T13:13:17.985Z,3.70
2019-03-03T13:15:44.152Z,3.50
2019-03-03T13:18:10.320Z,4.28
2019-03-03T13:20:36.516Z,3.92
2019-03-03T13:23:02.685Z,3.72
2019-03-03T13:25:28.925Z,3.98
2019-03-03T13:27:55.184Z,3.72
2019-03-03T13:30:21.350Z,4.00
2019-03-03T13:32:47.538Z,3.95
2019-03-03T13:35:13.905Z,3.65
2019-03-03T13:37:40.249Z,4.37
2019-03-03T13:40:06.395Z,3.80
2019-03-03T13:42:32.690Z,4.00
2019-03-03T13:44:58.945Z,4.12
2019-03-03T13:47:25.110Z,3.80
2019-03-03T13:49:51.320Z,3.75
2019-03-03T13:52:17.514Z,3.87
2019-03-03T13:54:43.763Z,3.40
2019-03-03T13:57:09.956Z,3.77
2019-03-03T13:59:36.129Z,3.65
2019-03-03T14:02:02.392Z,3.77
2019-03-03T14:04:28.731Z,4.10
2019-03-03T14:06:54.902Z,4.50
2019-03-03T14:09:21.081Z,3.75
2019-03-03T14:11:47.281Z,4.00
2019-03-03T14:14:13.497Z,3.83
2019-03-03T14:16:39.663Z,3.65
2019-03-03T14:19:06.115Z,3.40
2019-03-03T14:21:32.304Z,4.17
2019-03-03T14:23:59.558Z,3.75
2019-03-03T14:26:25.945Z,3.70
2019-03-03T14:28:52.090Z,4.65
2019-03-03T14:31:18.255Z,4.30
2019-03-03T14:33:44.562Z,3.67
2019-03-03T14:36:10.735Z,3.80
2019-03-03T14:38:36.951Z,4.05
2019-03-03T14:41:03.230Z,4.03
2019-03-03T14:43:29.393Z,3.70
2019-03-03T14:45:57.926Z,3.80
2019-03-03T14:48:23.584Z,3.25
2019-03-03T14:50:49.789Z,4.25
2019-03-03T14:53:15.991Z,3.80
2019-03-03T14:55:42.210Z,3.30
2019-03-03T14:58:08.376Z,3.62
2019-03-03T15:00:34.671Z,3.67
2019-03-03T15:03:00.857Z,3.95
2019-03-03T15:05:27.136Z,3.92
2019-03-03T15:07:53.397Z,3.42
2019-03-03T15:10:19.810Z,3.35
2019-03-03T15:12:47.274Z,3.20
2019-03-03T15:15:13.524Z,3.70
2019-03-03T15:17:39.958Z,3.87
2019-03-03T15:20:06.236Z,3.80
2019-03-03T15:22:32.532Z,4.03
2019-03-03T15:24:58.783Z,4.45
2019-03-03T15:27:24.995Z,3.85
2019-03-03T15:29:51.163Z,4.12
2019-03-03T15:32:17.362Z,3.58
2019-03-03T15:34:43.854Z,4.05
2019-03-03T15:37:10.026Z,3.80
2019-03-03T15:39:36.400Z,4.30
2019-03-03T15:42:02.608Z,4.00
2019-03-03T15:44:28.993Z,3.72
2019-03-03T15:46:55.145Z,4.50
2019-03-03T15:49:21.332Z,3.70
2019-03-03T15:51:47.497Z,3.80
2019-03-03T15:54:13.738Z,4.40
2019-03-03T15:56:39.932Z,5.15
2019-03-03T15:59:06.109Z,3.87
2019-03-03T16:01:32.305Z,4.17
2019-03-03T16:03:58.586Z,4.60
2019-03-03T16:06:24.808Z,4.60
2019-03-03T16:08:50.995Z,4.25
2019-03-03T16:11:17.171Z,4.45
2019-03-03T16:13:43.482Z,4.80
2019-03-03T16:16:09.671Z,4.85
2019-03-03T16:18:36.091Z,5.05
2019-03-03T16:21:02.331Z,5.92
2019-03-03T16:23:28.600Z,9.35
2019-03-03T16:25:55.812Z,11.08
2019-03-03T16:28:21.993Z,14.85
2019-03-03T16:30:48.630Z,12.45
2019-03-03T16:33:20.660Z,14.15
2019-03-03T16:35:42.841Z,12.40
2019-03-03T16:38:09.032Z,11.28
2019-03-03T16:40:39.502Z,10.78
2019-03-03T16:43:04.289Z,11.12
2019-03-03T16:45:30.483Z,8.60
2019-03-03T16:47:56.699Z,16.40
2019-03-03T16:50:22.854Z,14.65
2019-03-03T16:52:49.119Z,12.40
2019-03-03T16:55:15.285Z,9.85
2019-03-03T16:57:41.456Z,10.15
2019-03-03T17:00:07.646Z,12.00
2019-03-03T17:02:33.878Z,12.73
2019-03-03T17:05:00.112Z,13.78
2019-03-03T17:07:26.804Z,12.07
2019-03-03T17:09:52.976Z,13.90
2019-03-03T17:12:19.418Z,10.38
2019-03-03T17:14:45.658Z,8.93
2019-03-03T17:17:11.827Z,7.83
2019-03-03T17:19:38.002Z,7.62
2019-03-03T17:22:04.198Z,8.10
2019-03-03T17:24:30.440Z,7.65
2019-03-03T17:26:56.607Z,7.28
2019-03-03T17:29:22.924Z,7.15
2019-03-03T17:31:49.094Z,7.45
2019-03-03T17:34:15.368Z,7.08
2019-03-03T17:36:41.563Z,6.55
2019-03-03T17:39:07.738Z,7.08
2019-03-03T17:41:33.912Z,7.12
2019-03-03T17:44:00.738Z,6.45
2019-03-03T17:46:27.058Z,7.20
2019-03-03T17:48:53.232Z,7.05
2019-03-03T17:51:19.518Z,7.15
2019-03-03T17:53:45.701Z,6.50
2019-03-03T17:56:11.869Z,6.72
2019-03-03T17:58:38.104Z,6.67
2019-03-03T18:01:04.285Z,7.45
2019-03-03T18:03:31.802Z,6.35
2019-03-03T18:05:58.047Z,6.22
2019-03-03T18:08:24.219Z,6.60
2019-03-03T18:10:50.491Z,7.15
2019-03-03T18:13:16.771Z,6.35
2019-03-03T18:15:42.993Z,6.90
2019-03-03T18:18:09.402Z,7.17
2019-03-03T18:20:35.684Z,7.17
2019-03-03T18:23:01.893Z,7.17
2019-03-03T18:25:28.604Z,7.62
2019-03-03T18:27:54.768Z,6.70
2019-03-03T18:30:20.953Z,7.83
2019-03-03T18:32:47.144Z,6.90
2019-03-03T18:35:13.349Z,6.67
2019-03-03T18:37:39.512Z,6.40
2019-03-03T18:40:05.706Z,6.65
2019-03-03T18:42:31.969Z,6.70
2019-03-03T18:44:58.138Z,5.97
2019-03-03T18:47:24.327Z,6.30
2019-03-03T18:49:50.498Z,6.28
2019-03-03T18:52:16.666Z,6.47
2019-03-03T18:54:43.018Z,6.28
2019-03-03T18:57:09.202Z,6.20
2019-03-03T18:59:35.374Z,6.67
2019-03-03T19:02:02.353Z,7.97
2019-03-03T19:04:28.672Z,9.08
2019-03-03T19:06:54.844Z,9.03
2019-03-03T19:09:21.026Z,9.15
2019-03-03T19:11:47.212Z,8.83
2019-03-03T19:14:13.504Z,8.55
2019-03-03T19:16:39.708Z,7.83
2019-03-03T19:19:05.963Z,7.40
2019-03-03T19:21:32.170Z,7.47
2019-03-03T19:23:58.372Z,7.75
2019-03-03T19:26:24.544Z,7.45
2019-03-03T19:28:50.855Z,7.50
2019-03-03T19:31:17.054Z,6.95
2019-03-03T19:33:43.255Z,7.20
2019-03-03T19:36:09.428Z,6.87
2019-03-03T19:38:35.633Z,7.00
2019-03-03T19:41:01.804Z,6.65
2019-03-03T19:43:28.252Z,7.08
2019-03-03T19:45:54.448Z,8.55
2019-03-03T19:48:22.907Z,6.90
2019-03-03T19:50:49.139Z,7.00
2019-03-03T19:53:15.377Z,6.42
2019-03-03T19:55:41.543Z,7.05
2019-03-03T19:58:07.742Z,7.33
2019-03-03T20:00:35.996Z,7.03
2019-03-03T20:03:01.902Z,7.12
2019-03-03T20:05:28.076Z,6.55
2019-03-03T20:07:54.289Z,6.80
2019-03-03T20:10:20.461Z,6.95
2019-03-03T20:12:46.879Z,7.00
2019-03-03T20:15:13.080Z,6.65
2019-03-03T20:17:39.266Z,6.25
2019-03-03T20:20:05.435Z,6.22
2019-03-03T20:22:31.644Z,6.05
2019-03-03T20:24:57.812Z,6.12
2019-03-03T20:27:23.985Z,5.95
2019-03-03T20:29:50.232Z,6.20
2019-03-03T20:32:16.405Z,6.47
2019-03-03T20:34:42.572Z,6.20
2019-03-03T20:37:08.819Z,7.17
2019-03-03T20:39:34.977Z,7.75
2019-03-03T20:42:01.145Z,7.97
2019-03-03T20:44:27.547Z,7.80
2019-03-03T20:46:53.709Z,6.85
2019-03-03T20:49:19.879Z,7.40
2019-03-03T20:51:46.077Z,6.65
2019-03-03T20:54:12.430Z,6.75
2019-03-03T20:56:38.601Z,5.95
2019-03-03T20:59:04.793Z,5.97
2019-03-03T21:01:30.965Z,5.97
2019-03-03T21:03:57.130Z,5.90
2019-03-03T21:06:23.320Z,5.50
2019-03-03T21:08:49.491Z,5.90
2019-03-03T21:11:15.709Z,6.30
2019-03-03T21:13:41.970Z,7.17
2019-03-03T21:16:08.148Z,6.60
2019-03-03T21:18:34.326Z,6.62
2019-03-03T21:21:00.530Z,6.05
2019-03-03T21:23:26.912Z,15.23
2019-03-03T21:25:53.375Z,8.23
2019-03-03T21:28:19.578Z,27.25
2019-03-03T21:30:45.746Z,6.33
2019-03-03T21:33:12.013Z,7.80
2019-03-03T21:35:38.340Z,8.65
2019-03-03T21:38:04.467Z,7.65
2019-03-03T21:40:30.629Z,5.33
2019-03-03T21:42:56.926Z,5.97
2019-03-03T21:45:23.106Z,6.05
2019-03-03T21:47:49.303Z,5.90
2019-03-03T21:50:15.497Z,6.33
2019-03-03T21:52:44.408Z,6.30
2019-03-03T21:55:10.571Z,5.60
2019-03-03T21:57:36.872Z,6.17
2019-03-03T22:00:03.042Z,5.03
2019-03-03T22:02:29.294Z,5.35
2019-03-03T22:04:55.494Z,6.33
2019-03-03T22:07:21.667Z,7.87
2019-03-03T22:09:47.827Z,5.33
2019-03-03T22:12:14.097Z,5.05
2019-03-03T22:14:40.223Z,4.85
2019-03-03T22:17:06.393Z,10.58
2019-03-03T22:19:32.592Z,4.95
2019-03-03T22:21:58.757Z,5.03
2019-03-03T22:24:24.930Z,4.50
2019-03-03T22:26:51.118Z,4.53
2019-03-03T22:29:17.287Z,4.92
2019-03-03T22:31:43.464Z,24.55
2019-03-03T22:34:09.687Z,12.90
2019-03-03T22:36:35.865Z,6.47
2019-03-03T22:39:02.032Z,5.60
2019-03-03T22:41:28.231Z,5.95
2019-03-03T22:43:54.467Z,4.87
2019-03-03T22:46:20.639Z,12.43
2019-03-03T22:48:46.837Z,6.00
2019-03-03T22:51:13.000Z,5.65
2019-03-03T22:53:39.175Z,4.78
2019-03-03T22:56:05.386Z,4.03
2019-03-03T22:58:31.559Z,4.00
2019-03-03T23:00:57.745Z,4.75
2019-03-03T23:03:24.028Z,4.55
2019-03-03T23:05:50.204Z,4.53
2019-03-03T23:08:16.378Z,3.52
2019-03-03T23:10:42.570Z,4.25
2019-03-03T23:13:08.808Z,4.37
2019-03-03T23:15:35.017Z,4.28
2019-03-03T23:18:01.210Z,4.28
2019-03-03T23:20:27.392Z,4.10
2019-03-03T23:22:53.626Z,4.10
2019-03-03T23:25:19.848Z,3.60
2019-03-03T23:27:46.027Z,3.95
2019-03-03T23:30:12.209Z,3.67
2019-03-03T23:32:38.477Z,3.67
2019-03-03T23:35:04.642Z,3.70
2019-03-03T23:37:30.848Z,4.10
2019-03-03T23:39:57.023Z,3.15
2019-03-03T23:42:23.253Z,3.22
2019-03-03T23:44:49.427Z,3.47
2019-03-03T23:47:15.655Z,3.65
2019-03-03T23:49:41.836Z,4.50
2019-03-03T23:52:08.071Z,3.45
2019-03-03T23:54:34.264Z,3.65
2019-03-03T23:57:00.430Z,3.85
2019-03-03T23:59:26.604Z,3.83
